Sct Breithorn — HBHC — position and weather

sailwx.info

Track history (hours):
 
Tides and Currents Weather Stations Pressure Air Temp Water Temp Dewpoint Dewpoint Depression Visibility Wind Speed Wind Dir Waves Ship Positions

Sct Breithorn

Last reported at 2017-Jul-24 18:30 UTC. Time now 2017-Jul-24 18:49 UTC.
Position N 31°35' E 121°17'.

Length 165 m; draft 9.5 m.

Type: Ship. MMSI: 269848000.

Date/timePositionNaut miles runAvg speedWind from/ knotsBaromVisibWave heightAir tempDewpointWater temp
2017-Jul-24 18:30N 31°35' E 121°17'0 0.0
2017-Jul-24 18:00N 31°35' E 121°17'0 0.0
2017-Jul-24 17:30N 31°35' E 121°17'0 0.0
2017-Jul-24 17:00N 31°35' E 121°17'0 0.0
2017-Jul-24 16:27N 31°35' E 121°17'0 0.0
2017-Jul-24 15:48N 31°35' E 121°17'0 0.0
2017-Jul-24 13:00N 31°35' E 121°17'0 0.0
2017-Jul-24 12:18N 31°35' E 121°17'0 0.0
2017-Jul-24 11:57N 31°35' E 121°17'0 0.0
2017-Jul-24 11:21N 31°35' E 121°17'0 0.0
2017-Jul-24 11:00N 31°35' E 121°17'0 0.0
2017-Jul-24 10:27N 31°35' E 121°17'0 0.0
2017-Jul-24 09:57N 31°35' E 121°17'0 0.0
2017-Jul-24 09:30N 31°35' E 121°17'0 0.7
2017-Jul-24 09:00N 31°35' E 121°18'4 8.1
2017-Jul-24 08:30N 31°32' E 121°21'511.1
2017-Jul-24 08:00N 31°29' E 121°27'5 9.8
2017-Jul-24 07:30N 31°25' E 121°30'4 7.1
2017-Jul-24 07:00N 31°24' E 121°34'4 8.2
2017-Jul-24 06:30N 31°22' E 121°38'510.6
2017-Jul-24 06:00N 31°19' E 121°44'5 9.2
2017-Jul-24 05:30N 31°17' E 121°49'5 9.0
2017-Jul-24 05:01N 31°16' E 121°54'713.1
2017-Jul-24 04:30N 31°15' E 122°01'1012.4
2017-Jul-24 03:40N 31°10' E 122°12'214.1
2017-Jul-24 03:30N 31°09' E 122°14'612.4
2017-Jul-24 03:00N 31°06' E 122°21'510.7
2017-Jul-24 02:30N 31°07' E 122°27'611.2
2017-Jul-24 02:00N 31°07' E 122°33'611.3
2017-Jul-24 01:30N 31°07' E 122°40'611.4
2017-Jul-24 01:01N 31°06' E 122°46'713.2
2017-Jul-24 00:30N 31°05' E 122°54'713.0
2017-Jul-24 00:00N 31°05' E 123°02'713.2
2017-Jul-23 23:30N 31°05' E 123°09'712.8
2017-Jul-23 23:00N 31°05' E 123°17'4 6.7
2017-Jul-23 22:26N 31°06' E 123°21'511.8
2017-Jul-23 22:00N 31°03' E 123°17'510.6
2017-Jul-23 21:30N 30°58' E 123°16'611.9
2017-Jul-23 20:58N 30°54' E 123°22'511.4
2017-Jul-23 20:30N 30°51' E 123°27'612.2
2017-Jul-23 19:59N 30°45' E 123°26'712.8
2017-Jul-23 19:25N 30°37' E 123°25'4413.4
2017-Jul-23 16:06N 29°54' E 123°18'413.8
2017-Jul-23 15:49N 29°50' E 123°18'  
2017-Jul-17 06:44N 01°12' E 103°53'311.8
2017-Jul-17 06:30N 01°11' E 103°51'611.5
2017-Jul-17 06:00N 01°08' E 103°46'612.4
2017-Jul-17 05:30N 01°04' E 103°41'5 9.4
2017-Jul-17 04:56N 01°04' E 103°36'510.7
2017-Jul-17 04:29N 01°07' E 103°32'3 5.4
2017-Jul-17 04:00N 01°09' E 103°33'510.6
2017-Jul-17 03:30N 01°12' E 103°38'3 5.0
2017-Jul-17 03:00N 01°14' E 103°39'0 0.7
2017-Jul-17 02:29N 01°14' E 103°39'0 0.0
2017-Jul-17 01:53N 01°14' E 103°39'0 0.0
2017-Jul-17 01:26N 01°14' E 103°39'0 0.0
2017-Jul-17 00:56N 01°14' E 103°39'0 0.0
2017-Jul-17 00:29N 01°14' E 103°39'0 0.0
2017-Jul-16 23:53N 01°14' E 103°39'0 0.0
2017-Jul-16 23:29N 01°14' E 103°39'0 0.0
2017-Jul-16 22:56N 01°14' E 103°39'0 0.0
2017-Jul-16 22:23N 01°14' E 103°39'0 0.0
2017-Jul-16 21:56N 01°14' E 103°39'0 0.0
2017-Jul-16 21:29N 01°14' E 103°39'0 0.0
2017-Jul-16 20:50N 01°14' E 103°39'0 0.0
2017-Jul-16 20:26N 01°14' E 103°39'0 0.0
2017-Jul-16 19:53N 01°14' E 103°39'0 0.0
2017-Jul-16 19:26N 01°14' E 103°39'0 0.0
2017-Jul-16 18:56N 01°14' E 103°39'0 0.4
2017-Jul-16 18:30N 01°14' E 103°39'2 3.6
2017-Jul-16 18:00N 01°13' E 103°41'4 8.4
2017-Jul-16 17:30N 01°16' E 103°44'0 0.7
2017-Jul-16 16:56N 01°16' E 103°44'0 0.0
2017-Jul-16 16:24N 01°16' E 103°44'0 0.0
2017-Jul-16 15:54N 01°16' E 103°44'0 0.0
2017-Jul-16 15:29N 01°16' E 103°44'0 0.0
2017-Jul-16 14:56N 01°16' E 103°44'0 0.0
2017-Jul-16 14:29N 01°16' E 103°44'0 0.0
2017-Jul-16 13:56N 01°16' E 103°44'0 0.0
2017-Jul-16 13:29N 01°16' E 103°44'0 0.0
2017-Jul-16 12:56N 01°16' E 103°44'0 0.0
2017-Jul-16 12:30N 01°16' E 103°44'0 0.0
2017-Jul-16 11:56N 01°16' E 103°44'0 0.0
2017-Jul-16 11:24N 01°16' E 103°44'0 0.0
2017-Jul-16 10:56N 01°16' E 103°44'0 0.0
2017-Jul-16 10:24N 01°16' E 103°44'0 0.0
2017-Jul-16 10:00N 01°16' E 103°44'0 0.0
2017-Jul-16 09:20N 01°16' E 103°44'0 0.0
2017-Jul-16 08:56N 01°16' E 103°44'0 0.0
2017-Jul-16 08:30N 01°16' E 103°44'0 0.0
2017-Jul-16 07:47N 01°16' E 103°44'0 0.0
2017-Jul-16 07:30N 01°16' E 103°44'0 0.0
2017-Jul-16 06:56N 01°16' E 103°44'0 0.0
2017-Jul-16 06:30N 01°16' E 103°44'0 0.0
2017-Jul-16 06:00N 01°16' E 103°44'0 0.0
2017-Jul-16 05:26N 01°16' E 103°44'0 0.0
2017-Jul-16 04:50N 01°16' E 103°44'0 0.0
2017-Jul-16 04:30N 01°16' E 103°44'0 0.0
2017-Jul-16 04:00N 01°16' E 103°44'0 0.0
2017-Jul-16 03:30N 01°16' E 103°44'0 0.0
2017-Jul-16 02:56N 01°16' E 103°44'0 0.0
2017-Jul-16 02:29N 01°16' E 103°44'0 0.0
2017-Jul-16 01:56N 01°16' E 103°44'0 0.0
2017-Jul-16 01:29N 01°16' E 103°44'0 0.0
2017-Jul-16 00:56N 01°16' E 103°44'0 0.0
2017-Jul-16 00:30N 01°16' E 103°44'0 0.0
2017-Jul-15 23:56N 01°16' E 103°44'0 0.0
2017-Jul-15 23:30N 01°16' E 103°44'1 1.2
2017-Jul-15 23:00N 01°16' E 103°45'2 4.2
2017-Jul-15 22:30N 01°15' E 103°44'5 9.5
2017-Jul-15 22:00N 01°13' E 103°39'0 0.4
2017-Jul-15 21:23N 01°14' E 103°39'0 0.0
2017-Jul-15 20:35N 01°14' E 103°39'0 0.1
2017-Jul-15 20:08N 01°14' E 103°39'0 0.0
2017-Jul-15 19:50N 01°14' E 103°39'0 0.0
2017-Jul-15 19:11N 01°14' E 103°39'0 0.0
2017-Jul-15 18:53N 01°14' E 103°39'0 0.0
2017-Jul-15 18:17N 01°14' E 103°39'0 0.0
2017-Jul-15 17:59N 01°14' E 103°39'0 0.0
2017-Jul-15 17:29N 01°14' E 103°39'0 0.3
2017-Jul-15 17:00N 01°13' E 103°39'1 2.6
2017-Jul-15 16:30N 01°12' E 103°39'4 7.3
2017-Jul-15 16:00N 01°11' E 103°35'5 9.8
2017-Jul-15 15:30N 01°08' E 103°32'711.7
2017-Jul-15 14:53N 01°12' E 103°25'  
Track history (hours):
 
Tides and Currents Weather Stations Pressure Air Temp Water Temp Dewpoint Dewpoint Depression Visibility Wind Speed Wind Dir Waves Ship Positions

Sct Breithorn

Last reported at 2017-Jul-24 18:30 UTC. Time now 2017-Jul-24 18:49 UTC.
Position N 31°35' E 121°17'.

Length 165 m; draft 9.5 m.

Type: Ship. MMSI: 269848000.

Date/timePositionNaut miles runAvg speedWind from/ knotsBaromVisibWave heightAir tempDewpointWater temp
2017-Jul-24 18:30N 31°35' E 121°17'0 0.0
2017-Jul-24 18:00N 31°35' E 121°17'0 0.0
2017-Jul-24 17:30N 31°35' E 121°17'0 0.0
2017-Jul-24 17:00N 31°35' E 121°17'0 0.0
2017-Jul-24 16:27N 31°35' E 121°17'0 0.0
2017-Jul-24 15:48N 31°35' E 121°17'0 0.0
2017-Jul-24 13:00N 31°35' E 121°17'0 0.0
2017-Jul-24 12:18N 31°35' E 121°17'0 0.0
2017-Jul-24 11:57N 31°35' E 121°17'0 0.0
2017-Jul-24 11:21N 31°35' E 121°17'0 0.0
2017-Jul-24 11:00N 31°35' E 121°17'0 0.0
2017-Jul-24 10:27N 31°35' E 121°17'0 0.0
2017-Jul-24 09:57N 31°35' E 121°17'0 0.0
2017-Jul-24 09:30N 31°35' E 121°17'0 0.7
2017-Jul-24 09:00N 31°35' E 121°18'4 8.1
2017-Jul-24 08:30N 31°32' E 121°21'511.1
2017-Jul-24 08:00N 31°29' E 121°27'5 9.8
2017-Jul-24 07:30N 31°25' E 121°30'4 7.1
2017-Jul-24 07:00N 31°24' E 121°34'4 8.2
2017-Jul-24 06:30N 31°22' E 121°38'510.6
2017-Jul-24 06:00N 31°19' E 121°44'5 9.2
2017-Jul-24 05:30N 31°17' E 121°49'5 9.0
2017-Jul-24 05:01N 31°16' E 121°54'713.1
2017-Jul-24 04:30N 31°15' E 122°01'1012.4
2017-Jul-24 03:40N 31°10' E 122°12'214.1
2017-Jul-24 03:30N 31°09' E 122°14'612.4
2017-Jul-24 03:00N 31°06' E 122°21'510.7
2017-Jul-24 02:30N 31°07' E 122°27'611.2
2017-Jul-24 02:00N 31°07' E 122°33'611.3
2017-Jul-24 01:30N 31°07' E 122°40'611.4
2017-Jul-24 01:01N 31°06' E 122°46'713.2
2017-Jul-24 00:30N 31°05' E 122°54'713.0
2017-Jul-24 00:00N 31°05' E 123°02'713.2
2017-Jul-23 23:30N 31°05' E 123°09'712.8
2017-Jul-23 23:00N 31°05' E 123°17'4 6.7
2017-Jul-23 22:26N 31°06' E 123°21'511.8
2017-Jul-23 22:00N 31°03' E 123°17'510.6
2017-Jul-23 21:30N 30°58' E 123°16'611.9
2017-Jul-23 20:58N 30°54' E 123°22'511.4
2017-Jul-23 20:30N 30°51' E 123°27'612.2
2017-Jul-23 19:59N 30°45' E 123°26'712.8
2017-Jul-23 19:25N 30°37' E 123°25'4413.4
2017-Jul-23 16:06N 29°54' E 123°18'413.8
2017-Jul-23 15:49N 29°50' E 123°18'  
2017-Jul-17 06:44N 01°12' E 103°53'311.8
2017-Jul-17 06:30N 01°11' E 103°51'611.5
2017-Jul-17 06:00N 01°08' E 103°46'612.4
2017-Jul-17 05:30N 01°04' E 103°41'5 9.4
2017-Jul-17 04:56N 01°04' E 103°36'510.7
2017-Jul-17 04:29N 01°07' E 103°32'3 5.4
2017-Jul-17 04:00N 01°09' E 103°33'510.6
2017-Jul-17 03:30N 01°12' E 103°38'3 5.0
2017-Jul-17 03:00N 01°14' E 103°39'0 0.7
2017-Jul-17 02:29N 01°14' E 103°39'0 0.0
2017-Jul-17 01:53N 01°14' E 103°39'0 0.0
2017-Jul-17 01:26N 01°14' E 103°39'0 0.0
2017-Jul-17 00:56N 01°14' E 103°39'0 0.0
2017-Jul-17 00:29N 01°14' E 103°39'0 0.0
2017-Jul-16 23:53N 01°14' E 103°39'0 0.0
2017-Jul-16 23:29N 01°14' E 103°39'0 0.0
2017-Jul-16 22:56N 01°14' E 103°39'0 0.0
2017-Jul-16 22:23N 01°14' E 103°39'0 0.0
2017-Jul-16 21:56N 01°14' E 103°39'0 0.0
2017-Jul-16 21:29N 01°14' E 103°39'0 0.0
2017-Jul-16 20:50N 01°14' E 103°39'0 0.0
2017-Jul-16 20:26N 01°14' E 103°39'0 0.0
2017-Jul-16 19:53N 01°14' E 103°39'0 0.0
2017-Jul-16 19:26N 01°14' E 103°39'0 0.0
2017-Jul-16 18:56N 01°14' E 103°39'0 0.4
2017-Jul-16 18:30N 01°14' E 103°39'2 3.6
2017-Jul-16 18:00N 01°13' E 103°41'4 8.4
2017-Jul-16 17:30N 01°16' E 103°44'0 0.7
2017-Jul-16 16:56N 01°16' E 103°44'0 0.0
2017-Jul-16 16:24N 01°16' E 103°44'0 0.0
2017-Jul-16 15:54N 01°16' E 103°44'0 0.0
2017-Jul-16 15:29N 01°16' E 103°44'0 0.0
2017-Jul-16 14:56N 01°16' E 103°44'0 0.0
2017-Jul-16 14:29N 01°16' E 103°44'0 0.0
2017-Jul-16 13:56N 01°16' E 103°44'0 0.0
2017-Jul-16 13:29N 01°16' E 103°44'0 0.0
2017-Jul-16 12:56N 01°16' E 103°44'0 0.0
2017-Jul-16 12:30N 01°16' E 103°44'0 0.0
2017-Jul-16 11:56N 01°16' E 103°44'0 0.0
2017-Jul-16 11:24N 01°16' E 103°44'0 0.0
2017-Jul-16 10:56N 01°16' E 103°44'0 0.0
2017-Jul-16 10:24N 01°16' E 103°44'0 0.0
2017-Jul-16 10:00N 01°16' E 103°44'0 0.0
2017-Jul-16 09:20N 01°16' E 103°44'0 0.0
2017-Jul-16 08:56N 01°16' E 103°44'0 0.0
2017-Jul-16 08:30N 01°16' E 103°44'0 0.0
2017-Jul-16 07:47N 01°16' E 103°44'0 0.0
2017-Jul-16 07:30N 01°16' E 103°44'0 0.0
2017-Jul-16 06:56N 01°16' E 103°44'0 0.0
2017-Jul-16 06:30N 01°16' E 103°44'0 0.0
2017-Jul-16 06:00N 01°16' E 103°44'0 0.0
2017-Jul-16 05:26N 01°16' E 103°44'0 0.0
2017-Jul-16 04:50N 01°16' E 103°44'0 0.0
2017-Jul-16 04:30N 01°16' E 103°44'0 0.0
2017-Jul-16 04:00N 01°16' E 103°44'0 0.0
2017-Jul-16 03:30N 01°16' E 103°44'0 0.0
2017-Jul-16 02:56N 01°16' E 103°44'0 0.0
2017-Jul-16 02:29N 01°16' E 103°44'0 0.0
2017-Jul-16 01:56N 01°16' E 103°44'0 0.0
2017-Jul-16 01:29N 01°16' E 103°44'0 0.0
2017-Jul-16 00:56N 01°16' E 103°44'0 0.0
2017-Jul-16 00:30N 01°16' E 103°44'0 0.0
2017-Jul-15 23:56N 01°16' E 103°44'0 0.0
2017-Jul-15 23:30N 01°16' E 103°44'1 1.2
2017-Jul-15 23:00N 01°16' E 103°45'2 4.2
2017-Jul-15 22:30N 01°15' E 103°44'5 9.5
2017-Jul-15 22:00N 01°13' E 103°39'0 0.4
2017-Jul-15 21:23N 01°14' E 103°39'0 0.0
2017-Jul-15 20:35N 01°14' E 103°39'0 0.1
2017-Jul-15 20:08N 01°14' E 103°39'0 0.0
2017-Jul-15 19:50N 01°14' E 103°39'0 0.0
2017-Jul-15 19:11N 01°14' E 103°39'0 0.0
2017-Jul-15 18:53N 01°14' E 103°39'0 0.0
2017-Jul-15 18:17N 01°14' E 103°39'0 0.0
2017-Jul-15 17:59N 01°14' E 103°39'0 0.0
2017-Jul-15 17:29N 01°14' E 103°39'0 0.3
2017-Jul-15 17:00N 01°13' E 103°39'1 2.6
2017-Jul-15 16:30N 01°12' E 103°39'4 7.3
2017-Jul-15 16:00N 01°11' E 103°35'5 9.8
2017-Jul-15 15:30N 01°08' E 103°32'711.7
2017-Jul-15 14:53N 01°12' E 103°25'  

Dump ship's entire track history